sensor_id;sensor_type;location;lat;lon;timestamp;P1;durP1;ratioP1;P2;durP2;ratioP2
32786;SDS011;19139;49.372;8.580;2023-07-31T00:01:18;2.17;;;1.20;;
32786;SDS011;19139;49.372;8.580;2023-07-31T00:03:45;1.50;;;1.13;;
32786;SDS011;19139;49.372;8.580;2023-07-31T00:06:13;1.30;;;1.10;;
32786;SDS011;19139;49.372;8.580;2023-07-31T00:08:39;1.60;;;1.20;;
32786;SDS011;19139;49.372;8.580;2023-07-31T00:11:06;1.30;;;1.20;;
32786;SDS011;19139;49.372;8.580;2023-07-31T00:13:32;1.60;;;1.10;;
32786;SDS011;19139;49.372;8.580;2023-07-31T00:15:59;2.87;;;1.10;;
32786;SDS011;19139;49.372;8.580;2023-07-31T00:18:26;2.33;;;1.00;;
32786;SDS011;19139;49.372;8.580;2023-07-31T00:20:52;1.30;;;1.13;;
32786;SDS011;19139;49.372;8.580;2023-07-31T00:23:19;2.57;;;0.87;;
32786;SDS011;19139;49.372;8.580;2023-07-31T00:25:46;1.33;;;1.23;;
32786;SDS011;19139;49.372;8.580;2023-07-31T00:28:12;1.53;;;1.30;;
32786;SDS011;19139;49.372;8.580;2023-07-31T00:30:39;1.83;;;1.00;;
32786;SDS011;19139;49.372;8.580;2023-07-31T00:33:06;1.70;;;1.30;;
32786;SDS011;19139;49.372;8.580;2023-07-31T00:35:33;2.27;;;1.00;;
32786;SDS011;19139;49.372;8.580;2023-07-31T00:37:59;1.60;;;1.00;;
32786;SDS011;19139;49.372;8.580;2023-07-31T00:40:26;3.13;;;1.33;;
32786;SDS011;19139;49.372;8.580;2023-07-31T00:42:53;1.20;;;0.77;;
32786;SDS011;19139;49.372;8.580;2023-07-31T00:45:19;1.83;;;0.97;;
32786;SDS011;19139;49.372;8.580;2023-07-31T00:47:49;1.83;;;1.03;;
32786;SDS011;19139;49.372;8.580;2023-07-31T00:50:15;2.13;;;1.20;;
32786;SDS011;19139;49.372;8.580;2023-07-31T00:52:42;1.63;;;1.00;;
32786;SDS011;19139;49.372;8.580;2023-07-31T00:55:09;1.40;;;0.77;;
32786;SDS011;19139;49.372;8.580;2023-07-31T00:57:36;2.40;;;1.40;;
32786;SDS011;19139;49.372;8.580;2023-07-31T01:00:04;2.43;;;1.50;;
32786;SDS011;19139;49.372;8.580;2023-07-31T01:02:31;1.70;;;0.90;;
32786;SDS011;19139;49.372;8.580;2023-07-31T01:04:59;2.30;;;1.00;;
32786;SDS011;19139;49.372;8.580;2023-07-31T01:07:42;1.73;;;0.80;;
32786;SDS011;19139;49.372;8.580;2023-07-31T01:10:23;1.20;;;1.00;;
32786;SDS011;19139;49.372;8.580;2023-07-31T01:12:55;2.27;;;1.00;;
32786;SDS011;19139;49.372;8.580;2023-07-31T01:15:23;1.30;;;0.80;;
32786;SDS011;19139;49.372;8.580;2023-07-31T01:17:50;1.63;;;0.90;;
32786;SDS011;19139;49.372;8.580;2023-07-31T01:20:18;1.40;;;1.03;;
32786;SDS011;19139;49.372;8.580;2023-07-31T01:25:55;1.70;;;1.20;;
32786;SDS011;19139;49.372;8.580;2023-07-31T01:28:45;1.00;;;0.83;;
32786;SDS011;19139;49.372;8.580;2023-07-31T01:31:18;1.20;;;1.10;;
32786;SDS011;19139;49.372;8.580;2023-07-31T01:33:48;1.53;;;0.90;;
32786;SDS011;19139;49.372;8.580;2023-07-31T01:36:17;1.67;;;1.23;;
32786;SDS011;19139;49.372;8.580;2023-07-31T01:38:44;1.20;;;1.10;;
32786;SDS011;19139;49.372;8.580;2023-07-31T01:41:11;2.13;;;1.20;;
32786;SDS011;19139;49.372;8.580;2023-07-31T01:43:37;1.57;;;1.00;;
32786;SDS011;19139;49.372;8.580;2023-07-31T01:46:04;1.53;;;0.90;;
32786;SDS011;19139;49.372;8.580;2023-07-31T01:48:31;1.40;;;0.93;;
32786;SDS011;19139;49.372;8.580;2023-07-31T01:51:02;1.20;;;1.00;;
32786;SDS011;19139;49.372;8.580;2023-07-31T01:53:30;1.40;;;1.00;;
32786;SDS011;19139;49.372;8.580;2023-07-31T01:55:57;1.50;;;0.90;;
32786;SDS011;19139;49.372;8.580;2023-07-31T01:58:24;1.57;;;0.97;;
32786;SDS011;19139;49.372;8.580;2023-07-31T02:00:50;1.83;;;1.00;;
32786;SDS011;19139;49.372;8.580;2023-07-31T02:03:17;1.30;;;0.93;;
32786;SDS011;19139;49.372;8.580;2023-07-31T02:05:44;2.03;;;1.00;;
32786;SDS011;19139;49.372;8.580;2023-07-31T02:08:12;0.80;;;0.80;;
32786;SDS011;19139;49.372;8.580;2023-07-31T02:10:39;1.50;;;0.87;;
32786;SDS011;19139;49.372;8.580;2023-07-31T02:13:06;1.47;;;0.97;;
32786;SDS011;19139;49.372;8.580;2023-07-31T02:15:32;1.20;;;0.93;;
32786;SDS011;19139;49.372;8.580;2023-07-31T02:18:00;1.40;;;1.10;;
32786;SDS011;19139;49.372;8.580;2023-07-31T02:20:27;1.67;;;1.00;;
32786;SDS011;19139;49.372;8.580;2023-07-31T02:22:54;1.70;;;1.00;;
32786;SDS011;19139;49.372;8.580;2023-07-31T02:25:20;1.50;;;1.10;;
32786;SDS011;19139;49.372;8.580;2023-07-31T02:27:47;1.10;;;0.80;;
32786;SDS011;19139;49.372;8.580;2023-07-31T02:30:14;1.00;;;0.90;;
32786;SDS011;19139;49.372;8.580;2023-07-31T02:32:40;1.20;;;1.10;;
32786;SDS011;19139;49.372;8.580;2023-07-31T02:35:07;1.50;;;1.00;;
32786;SDS011;19139;49.372;8.580;2023-07-31T02:37:34;0.87;;;0.83;;
32786;SDS011;19139;49.372;8.580;2023-07-31T02:40:01;1.50;;;0.90;;
32786;SDS011;19139;49.372;8.580;2023-07-31T02:42:27;1.20;;;0.93;;
32786;SDS011;19139;49.372;8.580;2023-07-31T02:44:54;1.17;;;0.80;;
32786;SDS011;19139;49.372;8.580;2023-07-31T02:47:22;1.37;;;0.73;;
32786;SDS011;19139;49.372;8.580;2023-07-31T02:49:49;1.60;;;0.90;;
32786;SDS011;19139;49.372;8.580;2023-07-31T02:52:15;1.20;;;0.80;;
32786;SDS011;19139;49.372;8.580;2023-07-31T02:54:42;1.13;;;1.00;;
32786;SDS011;19139;49.372;8.580;2023-07-31T02:57:08;1.17;;;1.00;;
32786;SDS011;19139;49.372;8.580;2023-07-31T02:59:35;1.97;;;1.00;;
32786;SDS011;19139;49.372;8.580;2023-07-31T03:02:02;1.27;;;0.97;;
32786;SDS011;19139;49.372;8.580;2023-07-31T03:04:29;1.63;;;0.90;;
32786;SDS011;19139;49.372;8.580;2023-07-31T03:06:55;1.33;;;0.80;;
32786;SDS011;19139;49.372;8.580;2023-07-31T03:09:22;1.67;;;1.03;;
32786;SDS011;19139;49.372;8.580;2023-07-31T03:11:48;1.23;;;0.70;;
32786;SDS011;19139;49.372;8.580;2023-07-31T03:14:15;2.33;;;0.80;;
32786;SDS011;19139;49.372;8.580;2023-07-31T03:16:43;1.30;;;0.70;;
32786;SDS011;19139;49.372;8.580;2023-07-31T03:19:10;1.30;;;1.00;;
32786;SDS011;19139;49.372;8.580;2023-07-31T03:21:37;0.90;;;0.80;;
32786;SDS011;19139;49.372;8.580;2023-07-31T03:24:04;1.17;;;1.00;;
32786;SDS011;19139;49.372;8.580;2023-07-31T03:26:31;1.60;;;0.97;;
32786;SDS011;19139;49.372;8.580;2023-07-31T03:28:58;1.57;;;0.50;;
32786;SDS011;19139;49.372;8.580;2023-07-31T03:31:25;1.47;;;0.80;;
32786;SDS011;19139;49.372;8.580;2023-07-31T03:33:52;1.20;;;0.70;;
32786;SDS011;19139;49.372;8.580;2023-07-31T03:36:19;1.53;;;1.10;;
32786;SDS011;19139;49.372;8.580;2023-07-31T03:38:46;1.30;;;0.80;;
32786;SDS011;19139;49.372;8.580;2023-07-31T03:41:12;1.30;;;1.07;;
32786;SDS011;19139;49.372;8.580;2023-07-31T03:43:39;1.90;;;1.13;;
32786;SDS011;19139;49.372;8.580;2023-07-31T03:46:06;0.80;;;0.73;;
32786;SDS011;19139;49.372;8.580;2023-07-31T03:48:32;1.60;;;0.80;;
32786;SDS011;19139;49.372;8.580;2023-07-31T03:50:59;1.23;;;0.70;;
32786;SDS011;19139;49.372;8.580;2023-07-31T03:53:25;1.90;;;0.90;;
32786;SDS011;19139;49.372;8.580;2023-07-31T03:55:52;0.77;;;0.60;;
32786;SDS011;19139;49.372;8.580;2023-07-31T03:58:19;1.33;;;0.73;;
32786;SDS011;19139;49.372;8.580;2023-07-31T04:00:46;1.23;;;1.00;;
32786;SDS011;19139;49.372;8.580;2023-07-31T04:03:13;1.63;;;1.00;;
32786;SDS011;19139;49.372;8.580;2023-07-31T04:05:40;0.87;;;0.70;;
32786;SDS011;19139;49.372;8.580;2023-07-31T04:08:07;1.47;;;0.90;;
32786;SDS011;19139;49.372;8.580;2023-07-31T04:10:33;1.30;;;0.80;;
32786;SDS011;19139;49.372;8.580;2023-07-31T04:13:00;1.13;;;0.70;;
32786;SDS011;19139;49.372;8.580;2023-07-31T04:15:27;1.57;;;0.87;;
32786;SDS011;19139;49.372;8.580;2023-07-31T04:17:53;1.53;;;0.90;;
32786;SDS011;19139;49.372;8.580;2023-07-31T04:20:20;0.80;;;0.77;;
32786;SDS011;19139;49.372;8.580;2023-07-31T04:22:47;1.10;;;0.70;;
32786;SDS011;19139;49.372;8.580;2023-07-31T04:25:14;1.00;;;0.80;;
32786;SDS011;19139;49.372;8.580;2023-07-31T04:27:40;1.20;;;1.00;;
32786;SDS011;19139;49.372;8.580;2023-07-31T04:30:07;1.00;;;0.73;;
32786;SDS011;19139;49.372;8.580;2023-07-31T04:32:34;1.00;;;0.90;;
32786;SDS011;19139;49.372;8.580;2023-07-31T04:35:02;0.90;;;0.70;;
32786;SDS011;19139;49.372;8.580;2023-07-31T04:37:29;1.17;;;0.77;;
32786;SDS011;19139;49.372;8.580;2023-07-31T04:39:55;1.90;;;0.83;;
32786;SDS011;19139;49.372;8.580;2023-07-31T04:42:22;1.03;;;0.90;;
32786;SDS011;19139;49.372;8.580;2023-07-31T04:44:49;1.60;;;0.60;;
32786;SDS011;19139;49.372;8.580;2023-07-31T04:47:15;1.00;;;0.90;;
32786;SDS011;19139;49.372;8.580;2023-07-31T04:49:42;1.43;;;1.00;;
32786;SDS011;19139;49.372;8.580;2023-07-31T04:52:09;1.00;;;0.70;;
32786;SDS011;19139;49.372;8.580;2023-07-31T04:54:35;1.10;;;0.80;;
32786;SDS011;19139;49.372;8.580;2023-07-31T04:57:02;1.10;;;0.77;;
32786;SDS011;19139;49.372;8.580;2023-07-31T04:59:29;0.80;;;0.60;;
32786;SDS011;19139;49.372;8.580;2023-07-31T05:01:55;1.00;;;0.77;;
32786;SDS011;19139;49.372;8.580;2023-07-31T05:04:22;1.27;;;0.90;;
32786;SDS011;19139;49.372;8.580;2023-07-31T05:06:49;0.83;;;0.63;;
32786;SDS011;19139;49.372;8.580;2023-07-31T05:09:16;0.87;;;0.83;;
32786;SDS011;19139;49.372;8.580;2023-07-31T05:11:43;1.33;;;0.90;;
32786;SDS011;19139;49.372;8.580;2023-07-31T05:14:09;0.80;;;0.50;;
32786;SDS011;19139;49.372;8.580;2023-07-31T05:16:36;1.10;;;0.90;;
32786;SDS011;19139;49.372;8.580;2023-07-31T05:19:04;0.67;;;0.60;;
32786;SDS011;19139;49.372;8.580;2023-07-31T05:21:31;1.23;;;0.70;;
32786;SDS011;19139;49.372;8.580;2023-07-31T05:23:57;1.73;;;0.93;;
32786;SDS011;19139;49.372;8.580;2023-07-31T05:26:24;1.60;;;0.77;;
32786;SDS011;19139;49.372;8.580;2023-07-31T05:28:51;1.07;;;0.87;;
32786;SDS011;19139;49.372;8.580;2023-07-31T05:31:17;0.97;;;0.93;;
32786;SDS011;19139;49.372;8.580;2023-07-31T05:33:44;1.10;;;0.90;;
32786;SDS011;19139;49.372;8.580;2023-07-31T05:36:11;0.93;;;0.80;;
32786;SDS011;19139;49.372;8.580;2023-07-31T05:38:37;0.97;;;0.70;;
32786;SDS011;19139;49.372;8.580;2023-07-31T05:41:08;1.30;;;0.70;;
32786;SDS011;19139;49.372;8.580;2023-07-31T05:43:35;0.87;;;0.80;;
32786;SDS011;19139;49.372;8.580;2023-07-31T05:46:02;1.60;;;0.80;;
32786;SDS011;19139;49.372;8.580;2023-07-31T05:48:31;0.53;;;0.50;;
32786;SDS011;19139;49.372;8.580;2023-07-31T05:51:00;1.30;;;1.00;;
32786;SDS011;19139;49.372;8.580;2023-07-31T05:53:27;1.20;;;0.70;;
32786;SDS011;19139;49.372;8.580;2023-07-31T05:55:53;1.27;;;1.00;;
32786;SDS011;19139;49.372;8.580;2023-07-31T05:58:20;0.87;;;0.70;;
32786;SDS011;19139;49.372;8.580;2023-07-31T06:00:47;0.60;;;0.60;;
32786;SDS011;19139;49.372;8.580;2023-07-31T06:03:14;1.00;;;0.73;;
32786;SDS011;19139;49.372;8.580;2023-07-31T06:05:40;0.93;;;0.80;;
32786;SDS011;19139;49.372;8.580;2023-07-31T06:08:07;1.27;;;0.90;;
32786;SDS011;19139;49.372;8.580;2023-07-31T06:10:34;0.80;;;0.80;;
32786;SDS011;19139;49.372;8.580;2023-07-31T06:13:01;1.10;;;0.80;;
32786;SDS011;19139;49.372;8.580;2023-07-31T06:15:27;1.53;;;0.90;;
32786;SDS011;19139;49.372;8.580;2023-07-31T06:17:54;1.30;;;1.07;;
32786;SDS011;19139;49.372;8.580;2023-07-31T06:20:21;0.73;;;0.70;;
32786;SDS011;19139;49.372;8.580;2023-07-31T06:22:47;1.20;;;0.83;;
32786;SDS011;19139;49.372;8.580;2023-07-31T06:25:14;0.77;;;0.60;;
32786;SDS011;19139;49.372;8.580;2023-07-31T06:27:41;1.23;;;0.93;;
32786;SDS011;19139;49.372;8.580;2023-07-31T06:30:08;1.67;;;0.90;;
32786;SDS011;19139;49.372;8.580;2023-07-31T06:32:35;1.00;;;0.77;;
32786;SDS011;19139;49.372;8.580;2023-07-31T06:35:02;1.60;;;0.70;;
32786;SDS011;19139;49.372;8.580;2023-07-31T06:37:29;1.17;;;0.63;;
32786;SDS011;19139;49.372;8.580;2023-07-31T06:39:57;0.90;;;0.90;;
32786;SDS011;19139;49.372;8.580;2023-07-31T06:42:24;1.10;;;1.00;;
32786;SDS011;19139;49.372;8.580;2023-07-31T06:44:50;1.20;;;0.90;;
32786;SDS011;19139;49.372;8.580;2023-07-31T06:47:17;1.40;;;0.93;;
32786;SDS011;19139;49.372;8.580;2023-07-31T06:49:44;1.10;;;1.00;;
32786;SDS011;19139;49.372;8.580;2023-07-31T06:52:10;0.83;;;0.53;;
32786;SDS011;19139;49.372;8.580;2023-07-31T06:54:37;1.00;;;0.80;;
32786;SDS011;19139;49.372;8.580;2023-07-31T06:57:04;1.20;;;1.10;;
32786;SDS011;19139;49.372;8.580;2023-07-31T06:59:30;1.00;;;0.70;;
32786;SDS011;19139;49.372;8.580;2023-07-31T07:01:57;1.17;;;0.87;;
32786;SDS011;19139;49.372;8.580;2023-07-31T07:04:24;1.30;;;0.90;;
32786;SDS011;19139;49.372;8.580;2023-07-31T07:06:50;0.90;;;0.70;;
32786;SDS011;19139;49.372;8.580;2023-07-31T07:09:17;1.33;;;0.97;;
32786;SDS011;19139;49.372;8.580;2023-07-31T07:11:44;0.80;;;0.70;;
32786;SDS011;19139;49.372;8.580;2023-07-31T07:14:11;1.53;;;1.20;;
32786;SDS011;19139;49.372;8.580;2023-07-31T07:16:37;1.10;;;0.80;;
32786;SDS011;19139;49.372;8.580;2023-07-31T07:19:07;1.10;;;0.90;;
32786;SDS011;19139;49.372;8.580;2023-07-31T07:21:34;0.97;;;0.70;;
32786;SDS011;19139;49.372;8.580;2023-07-31T07:24:01;1.33;;;1.00;;
32786;SDS011;19139;49.372;8.580;2023-07-31T07:26:27;1.17;;;0.80;;
32786;SDS011;19139;49.372;8.580;2023-07-31T07:28:54;0.90;;;0.80;;
32786;SDS011;19139;49.372;8.580;2023-07-31T07:31:21;1.00;;;0.73;;
32786;SDS011;19139;49.372;8.580;2023-07-31T07:33:48;0.80;;;0.73;;
32786;SDS011;19139;49.372;8.580;2023-07-31T07:36:14;1.93;;;1.00;;
32786;SDS011;19139;49.372;8.580;2023-07-31T07:38:41;1.53;;;1.07;;
32786;SDS011;19139;49.372;8.580;2023-07-31T07:41:08;1.40;;;0.97;;
32786;SDS011;19139;49.372;8.580;2023-07-31T07:43:34;0.80;;;0.73;;
32786;SDS011;19139;49.372;8.580;2023-07-31T07:46:01;1.20;;;1.10;;
32786;SDS011;19139;49.372;8.580;2023-07-31T07:48:28;1.37;;;0.87;;
32786;SDS011;19139;49.372;8.580;2023-07-31T07:50:55;1.13;;;0.60;;
32786;SDS011;19139;49.372;8.580;2023-07-31T07:53:21;1.17;;;0.70;;
32786;SDS011;19139;49.372;8.580;2023-07-31T07:55:48;1.67;;;1.10;;
32786;SDS011;19139;49.372;8.580;2023-07-31T07:58:15;1.27;;;1.00;;
32786;SDS011;19139;49.372;8.580;2023-07-31T08:00:41;1.23;;;0.90;;
32786;SDS011;19139;49.372;8.580;2023-07-31T08:03:14;1.33;;;0.87;;
32786;SDS011;19139;49.372;8.580;2023-07-31T08:05:40;0.70;;;0.70;;
32786;SDS011;19139;49.372;8.580;2023-07-31T08:08:08;1.53;;;1.00;;
32786;SDS011;19139;49.372;8.580;2023-07-31T08:10:34;0.97;;;0.70;;
32786;SDS011;19139;49.372;8.580;2023-07-31T08:13:01;1.50;;;0.90;;
32786;SDS011;19139;49.372;8.580;2023-07-31T08:15:28;2.17;;;1.30;;
32786;SDS011;19139;49.372;8.580;2023-07-31T08:17:54;5.00;;;1.50;;
32786;SDS011;19139;49.372;8.580;2023-07-31T08:20:21;4.47;;;1.63;;
32786;SDS011;19139;49.372;8.580;2023-07-31T08:22:48;2.90;;;1.63;;
32786;SDS011;19139;49.372;8.580;2023-07-31T08:25:15;3.57;;;1.73;;
32786;SDS011;19139;49.372;8.580;2023-07-31T08:27:44;5.53;;;2.40;;
32786;SDS011;19139;49.372;8.580;2023-07-31T08:30:11;2.10;;;1.83;;
32786;SDS011;19139;49.372;8.580;2023-07-31T08:32:38;4.23;;;1.90;;
32786;SDS011;19139;49.372;8.580;2023-07-31T08:35:05;4.47;;;1.80;;
32786;SDS011;19139;49.372;8.580;2023-07-31T08:37:32;2.47;;;1.83;;
32786;SDS011;19139;49.372;8.580;2023-07-31T08:39:58;2.87;;;1.80;;
32786;SDS011;19139;49.372;8.580;2023-07-31T08:42:25;5.13;;;2.20;;
32786;SDS011;19139;49.372;8.580;2023-07-31T08:44:55;3.67;;;2.43;;
32786;SDS011;19139;49.372;8.580;2023-07-31T08:47:22;3.33;;;1.83;;
32786;SDS011;19139;49.372;8.580;2023-07-31T08:49:50;4.07;;;2.53;;
32786;SDS011;19139;49.372;8.580;2023-07-31T08:52:18;3.60;;;2.07;;
32786;SDS011;19139;49.372;8.580;2023-07-31T08:54:45;3.90;;;2.00;;
32786;SDS011;19139;49.372;8.580;2023-07-31T08:57:12;13.00;;;2.83;;
32786;SDS011;19139;49.372;8.580;2023-07-31T08:59:39;3.40;;;2.23;;
32786;SDS011;19139;49.372;8.580;2023-07-31T09:02:07;3.90;;;2.27;;
32786;SDS011;19139;49.372;8.580;2023-07-31T09:04:35;6.60;;;2.57;;
32786;SDS011;19139;49.372;8.580;2023-07-31T09:07:02;3.33;;;1.83;;
32786;SDS011;19139;49.372;8.580;2023-07-31T09:09:31;4.80;;;1.90;;
32786;SDS011;19139;49.372;8.580;2023-07-31T09:11:58;7.80;;;2.67;;
32786;SDS011;19139;49.372;8.580;2023-07-31T09:14:25;3.60;;;2.30;;
32786;SDS011;19139;49.372;8.580;2023-07-31T09:16:55;4.00;;;2.00;;
32786;SDS011;19139;49.372;8.580;2023-07-31T09:19:24;2.80;;;1.93;;
32786;SDS011;19139;49.372;8.580;2023-07-31T09:21:52;4.73;;;2.30;;
32786;SDS011;19139;49.372;8.580;2023-07-31T09:24:26;5.03;;;2.70;;
32786;SDS011;19139;49.372;8.580;2023-07-31T09:26:54;3.50;;;2.10;;
32786;SDS011;19139;49.372;8.580;2023-07-31T09:29:22;4.50;;;2.40;;
32786;SDS011;19139;49.372;8.580;2023-07-31T09:31:50;4.73;;;2.33;;
32786;SDS011;19139;49.372;8.580;2023-07-31T09:34:17;2.90;;;2.17;;
32786;SDS011;19139;49.372;8.580;2023-07-31T09:36:44;4.13;;;2.23;;
32786;SDS011;19139;49.372;8.580;2023-07-31T09:39:13;2.77;;;2.13;;
32786;SDS011;19139;49.372;8.580;2023-07-31T09:41:43;4.17;;;2.57;;
32786;SDS011;19139;49.372;8.580;2023-07-31T09:44:11;4.87;;;2.43;;
32786;SDS011;19139;49.372;8.580;2023-07-31T09:46:38;4.83;;;2.33;;
32786;SDS011;19139;49.372;8.580;2023-07-31T09:49:06;4.57;;;2.70;;
32786;SDS011;19139;49.372;8.580;2023-07-31T09:51:40;5.03;;;2.83;;
32786;SDS011;19139;49.372;8.580;2023-07-31T09:54:15;5.03;;;2.37;;
32786;SDS011;19139;49.372;8.580;2023-07-31T09:59:16;5.20;;;2.20;;
32786;SDS011;19139;49.372;8.580;2023-07-31T10:01:49;4.47;;;2.30;;
32786;SDS011;19139;49.372;8.580;2023-07-31T10:04:16;3.97;;;3.30;;
32786;SDS011;19139;49.372;8.580;2023-07-31T10:06:47;6.00;;;3.10;;
32786;SDS011;19139;49.372;8.580;2023-07-31T10:09:16;4.17;;;2.53;;
32786;SDS011;19139;49.372;8.580;2023-07-31T10:11:46;4.20;;;2.57;;
32786;SDS011;19139;49.372;8.580;2023-07-31T10:14:18;4.57;;;2.13;;
32786;SDS011;19139;49.372;8.580;2023-07-31T10:16:46;6.77;;;2.57;;
32786;SDS011;19139;49.372;8.580;2023-07-31T10:19:13;5.63;;;2.83;;
32786;SDS011;19139;49.372;8.580;2023-07-31T10:21:41;4.73;;;3.20;;
32786;SDS011;19139;49.372;8.580;2023-07-31T10:24:08;3.53;;;2.63;;
32786;SDS011;19139;49.372;8.580;2023-07-31T10:26:35;3.57;;;2.70;;
32786;SDS011;19139;49.372;8.580;2023-07-31T10:29:05;4.50;;;2.67;;
32786;SDS011;19139;49.372;8.580;2023-07-31T10:31:32;4.87;;;2.67;;
32786;SDS011;19139;49.372;8.580;2023-07-31T10:34:01;4.13;;;3.07;;
32786;SDS011;19139;49.372;8.580;2023-07-31T10:36:29;4.77;;;3.27;;
32786;SDS011;19139;49.372;8.580;2023-07-31T10:38:55;5.17;;;2.63;;
32786;SDS011;19139;49.372;8.580;2023-07-31T10:41:31;6.00;;;3.00;;
32786;SDS011;19139;49.372;8.580;2023-07-31T10:43:59;6.33;;;2.73;;
32786;SDS011;19139;49.372;8.580;2023-07-31T10:46:29;6.80;;;3.57;;
32786;SDS011;19139;49.372;8.580;2023-07-31T10:49:02;5.07;;;2.93;;
32786;SDS011;19139;49.372;8.580;2023-07-31T10:51:32;5.03;;;3.03;;
32786;SDS011;19139;49.372;8.580;2023-07-31T10:54:14;7.00;;;2.90;;
32786;SDS011;19139;49.372;8.580;2023-07-31T10:56:44;5.27;;;3.20;;
32786;SDS011;19139;49.372;8.580;2023-07-31T10:59:12;4.17;;;2.60;;
32786;SDS011;19139;49.372;8.580;2023-07-31T11:01:55;5.63;;;2.20;;
32786;SDS011;19139;49.372;8.580;2023-07-31T11:04:29;8.30;;;2.67;;
32786;SDS011;19139;49.372;8.580;2023-07-31T11:06:57;5.70;;;3.00;;
32786;SDS011;19139;49.372;8.580;2023-07-31T11:09:31;4.83;;;2.67;;
32786;SDS011;19139;49.372;8.580;2023-07-31T11:11:59;4.43;;;2.90;;
32786;SDS011;19139;49.372;8.580;2023-07-31T11:14:26;5.17;;;3.07;;
32786;SDS011;19139;49.372;8.580;2023-07-31T11:16:53;6.57;;;2.90;;
32786;SDS011;19139;49.372;8.580;2023-07-31T11:19:23;4.70;;;2.83;;
32786;SDS011;19139;49.372;8.580;2023-07-31T11:21:51;5.13;;;2.17;;
32786;SDS011;19139;49.372;8.580;2023-07-31T11:24:19;4.47;;;2.53;;
32786;SDS011;19139;49.372;8.580;2023-07-31T11:26:52;4.97;;;2.60;;
32786;SDS011;19139;49.372;8.580;2023-07-31T11:29:19;5.23;;;2.30;;
32786;SDS011;19139;49.372;8.580;2023-07-31T11:31:47;6.03;;;3.07;;
32786;SDS011;19139;49.372;8.580;2023-07-31T11:34:15;6.47;;;2.57;;
32786;SDS011;19139;49.372;8.580;2023-07-31T11:36:52;6.27;;;2.80;;
32786;SDS011;19139;49.372;8.580;2023-07-31T11:39:22;7.13;;;3.30;;
32786;SDS011;19139;49.372;8.580;2023-07-31T11:41:48;4.37;;;2.30;;
32786;SDS011;19139;49.372;8.580;2023-07-31T11:44:15;7.13;;;3.23;;
32786;SDS011;19139;49.372;8.580;2023-07-31T11:46:56;4.37;;;2.60;;
32786;SDS011;19139;49.372;8.580;2023-07-31T11:49:23;4.43;;;2.70;;
32786;SDS011;19139;49.372;8.580;2023-07-31T11:51:49;6.67;;;2.90;;
32786;SDS011;19139;49.372;8.580;2023-07-31T11:54:16;4.67;;;3.00;;
32786;SDS011;19139;49.372;8.580;2023-07-31T11:56:43;5.10;;;3.20;;
32786;SDS011;19139;49.372;8.580;2023-07-31T11:59:10;4.83;;;3.20;;
32786;SDS011;19139;49.372;8.580;2023-07-31T12:01:38;4.73;;;2.77;;
32786;SDS011;19139;49.372;8.580;2023-07-31T12:04:05;5.47;;;2.77;;
32786;SDS011;19139;49.372;8.580;2023-07-31T12:06:34;3.67;;;2.50;;
32786;SDS011;19139;49.372;8.580;2023-07-31T12:09:04;4.23;;;2.70;;
32786;SDS011;19139;49.372;8.580;2023-07-31T12:11:42;5.97;;;3.07;;
32786;SDS011;19139;49.372;8.580;2023-07-31T12:14:19;4.97;;;2.53;;
32786;SDS011;19139;49.372;8.580;2023-07-31T12:16:47;6.40;;;2.60;;
32786;SDS011;19139;49.372;8.580;2023-07-31T12:19:19;8.23;;;2.80;;
32786;SDS011;19139;49.372;8.580;2023-07-31T12:21:45;5.50;;;2.97;;
32786;SDS011;19139;49.372;8.580;2023-07-31T12:24:12;4.50;;;2.70;;
32786;SDS011;19139;49.372;8.580;2023-07-31T12:26:39;4.57;;;3.00;;
32786;SDS011;19139;49.372;8.580;2023-07-31T12:29:07;5.47;;;2.90;;
32786;SDS011;19139;49.372;8.580;2023-07-31T12:31:34;3.47;;;2.47;;
32786;SDS011;19139;49.372;8.580;2023-07-31T12:34:01;4.13;;;2.80;;
32786;SDS011;19139;49.372;8.580;2023-07-31T12:36:28;3.37;;;2.50;;
32786;SDS011;19139;49.372;8.580;2023-07-31T12:38:58;5.13;;;2.83;;
32786;SDS011;19139;49.372;8.580;2023-07-31T12:41:25;8.53;;;2.60;;
32786;SDS011;19139;49.372;8.580;2023-07-31T12:43:52;5.03;;;2.90;;
32786;SDS011;19139;49.372;8.580;2023-07-31T12:46:19;5.47;;;3.03;;
32786;SDS011;19139;49.372;8.580;2023-07-31T12:48:46;6.70;;;2.63;;
32786;SDS011;19139;49.372;8.580;2023-07-31T12:51:12;4.80;;;3.30;;
32786;SDS011;19139;49.372;8.580;2023-07-31T12:53:40;6.70;;;2.57;;
32786;SDS011;19139;49.372;8.580;2023-07-31T12:56:06;5.10;;;3.30;;
32786;SDS011;19139;49.372;8.580;2023-07-31T12:58:33;6.00;;;3.00;;
32786;SDS011;19139;49.372;8.580;2023-07-31T13:01:00;4.40;;;2.90;;
32786;SDS011;19139;49.372;8.580;2023-07-31T13:03:31;4.67;;;2.70;;
32786;SDS011;19139;49.372;8.580;2023-07-31T13:05:58;5.00;;;2.87;;
32786;SDS011;19139;49.372;8.580;2023-07-31T13:08:24;5.23;;;3.37;;
32786;SDS011;19139;49.372;8.580;2023-07-31T13:10:51;4.73;;;3.17;;
32786;SDS011;19139;49.372;8.580;2023-07-31T13:13:18;5.27;;;2.73;;
32786;SDS011;19139;49.372;8.580;2023-07-31T13:15:45;5.97;;;3.07;;
32786;SDS011;19139;49.372;8.580;2023-07-31T13:18:13;3.60;;;2.73;;
32786;SDS011;19139;49.372;8.580;2023-07-31T13:20:40;6.23;;;3.03;;
32786;SDS011;19139;49.372;8.580;2023-07-31T13:23:07;6.97;;;3.10;;
32786;SDS011;19139;49.372;8.580;2023-07-31T13:25:34;4.37;;;3.33;;
32786;SDS011;19139;49.372;8.580;2023-07-31T13:28:01;3.97;;;2.73;;
32786;SDS011;19139;49.372;8.580;2023-07-31T13:30:29;6.30;;;3.00;;
32786;SDS011;19139;49.372;8.580;2023-07-31T13:32:55;5.77;;;2.77;;
32786;SDS011;19139;49.372;8.580;2023-07-31T13:35:22;4.43;;;2.83;;
32786;SDS011;19139;49.372;8.580;2023-07-31T13:37:49;5.27;;;3.33;;
32786;SDS011;19139;49.372;8.580;2023-07-31T13:40:16;5.20;;;3.30;;
32786;SDS011;19139;49.372;8.580;2023-07-31T13:42:43;7.27;;;3.90;;
32786;SDS011;19139;49.372;8.580;2023-07-31T13:45:10;4.80;;;3.17;;
32786;SDS011;19139;49.372;8.580;2023-07-31T13:47:37;5.77;;;2.90;;
32786;SDS011;19139;49.372;8.580;2023-07-31T13:50:04;5.83;;;3.20;;
32786;SDS011;19139;49.372;8.580;2023-07-31T13:52:31;4.50;;;3.13;;
32786;SDS011;19139;49.372;8.580;2023-07-31T13:54:57;5.10;;;3.33;;
32786;SDS011;19139;49.372;8.580;2023-07-31T13:57:24;5.33;;;3.37;;
32786;SDS011;19139;49.372;8.580;2023-07-31T13:59:51;4.70;;;2.93;;
32786;SDS011;19139;49.372;8.580;2023-07-31T14:02:17;6.03;;;2.63;;
32786;SDS011;19139;49.372;8.580;2023-07-31T14:04:44;4.77;;;3.07;;
32786;SDS011;19139;49.372;8.580;2023-07-31T14:07:11;6.30;;;2.87;;
32786;SDS011;19139;49.372;8.580;2023-07-31T14:09:37;6.23;;;2.70;;
32786;SDS011;19139;49.372;8.580;2023-07-31T14:12:04;3.80;;;2.80;;
32786;SDS011;19139;49.372;8.580;2023-07-31T14:14:31;3.93;;;2.40;;
32786;SDS011;19139;49.372;8.580;2023-07-31T14:17:00;5.77;;;3.30;;
32786;SDS011;19139;49.372;8.580;2023-07-31T14:19:28;6.57;;;2.90;;
32786;SDS011;19139;49.372;8.580;2023-07-31T14:21:55;3.77;;;2.73;;
32786;SDS011;19139;49.372;8.580;2023-07-31T14:24:37;3.70;;;2.90;;
32786;SDS011;19139;49.372;8.580;2023-07-31T14:27:04;4.40;;;2.70;;
32786;SDS011;19139;49.372;8.580;2023-07-31T14:29:31;5.63;;;2.83;;
32786;SDS011;19139;49.372;8.580;2023-07-31T14:31:57;3.60;;;2.23;;
32786;SDS011;19139;49.372;8.580;2023-07-31T14:34:25;5.93;;;3.00;;
32786;SDS011;19139;49.372;8.580;2023-07-31T14:36:52;6.87;;;3.13;;
32786;SDS011;19139;49.372;8.580;2023-07-31T14:39:19;7.20;;;2.87;;
32786;SDS011;19139;49.372;8.580;2023-07-31T14:41:46;3.57;;;2.40;;
32786;SDS011;19139;49.372;8.580;2023-07-31T14:44:13;4.67;;;2.90;;
32786;SDS011;19139;49.372;8.580;2023-07-31T14:46:40;3.63;;;2.27;;
32786;SDS011;19139;49.372;8.580;2023-07-31T14:49:07;4.10;;;2.60;;
32786;SDS011;19139;49.372;8.580;2023-07-31T14:51:34;5.93;;;3.07;;
32786;SDS011;19139;49.372;8.580;2023-07-31T14:54:01;4.37;;;2.70;;
32786;SDS011;19139;49.372;8.580;2023-07-31T14:56:27;3.93;;;2.37;;